Time;durP1;ratioP1;P1;durP2;ratioP2;P2;SDS_P1;SDS_P2;PMS_P1;PMS_P2;Temp;Humidity;BMP_temperature;BMP_pressure;BME280_temperature;BME280_humidity;BME280_pressure;Samples;Min_cycle;Max_cycle;Signal;HPM_P1;HPM_P2
2021/08/21 00:01:05;;;;;;;0.57;0.28;;;14.10;99.90;;;;;;5073258;28;20416;-70
2021/08/21 00:03:31;;;;;;;0.20;0.20;;;14.10;99.90;;;;;;5073497;28;20021;-70
2021/08/21 00:05:57;;;;;;;1.17;0.20;;;14.00;99.90;;;;;;5073345;28;20024;-70
2021/08/21 00:08:23;;;;;;;0.75;0.30;;;14.10;99.90;;;;;;5073248;28;20043;-70
2021/08/21 00:10:48;;;;;;;0.45;0.32;;;14.10;99.90;;;;;;5073241;28;20428;-70
2021/08/21 00:13:14;;;;;;;2.53;0.22;;;14.10;99.90;;;;;;5073397;28;20047;-70
2021/08/21 00:15:40;;;;;;;0.40;0.30;;;14.00;99.90;;;;;;5073574;28;20024;-70
2021/08/21 00:18:05;;;;;;;4.38;0.40;;;14.00;99.90;;;;;;5073390;28;20087;-71
2021/08/21 00:20:31;;;;;;;0.30;0.30;;;14.00;99.90;;;;;;5073192;28;20032;-71
2021/08/21 00:22:57;;;;;;;1.75;0.28;;;14.00;99.90;;;;;;5073192;28;20063;-71
2021/08/21 00:25:23;;;;;;;0.20;0.20;;;14.10;99.90;;;;;;5073165;28;20028;-71
2021/08/21 00:27:48;;;;;;;2.88;0.40;;;14.10;99.90;;;;;;5073372;28;20025;-72
2021/08/21 00:30:14;;;;;;;1.63;0.60;;;14.10;99.90;;;;;;5073399;28;20025;-71
2021/08/21 00:32:41;;;;;;;0.22;0.20;;;14.10;99.90;;;;;;5073281;28;20036;-71
2021/08/21 00:35:07;;;;;;;0.63;0.30;;;14.10;99.90;;;;;;5072897;28;20021;-71
2021/08/21 00:37:33;;;;;;;2.88;0.40;;;14.10;99.90;;;;;;5073040;28;20116;-71
2021/08/21 00:39:59;;;;;;;0.15;0.15;;;14.10;99.90;;;;;;5072667;28;20048;-70
2021/08/21 00:42:25;;;;;;;0.40;0.20;;;14.10;99.90;;;;;;5073139;28;20107;-70
2021/08/21 00:44:50;;;;;;;1.52;0.20;;;14.10;99.90;;;;;;5072966;28;20075;-70
2021/08/21 00:47:18;;;;;;;1.35;0.20;;;14.10;99.90;;;;;;5072822;28;20559;-69
2021/08/21 00:49:54;;;;;;;0.20;0.20;;;14.10;99.90;;;;;;5072680;28;20407;-68
2021/08/21 00:52:24;;;;;;;0.75;0.45;;;14.10;99.90;;;;;;5027363;28;1297628;-68
2021/08/21 00:54:51;;;;;;;2.17;0.40;;;14.10;99.90;;;;;;5073654;28;20484;-68
2021/08/21 00:57:17;;;;;;;2.42;0.20;;;14.10;99.90;;;;;;5073963;28;20032;-69
2021/08/21 00:59:45;;;;;;;1.17;0.30;;;14.10;99.90;;;;;;5073769;28;20031;-69
2021/08/21 01:02:11;;;;;;;0.52;0.20;;;14.10;99.90;;;;;;5073753;28;20369;-69
2021/08/21 01:04:38;;;;;;;0.20;0.20;;;14.20;99.90;;;;;;5073449;28;20496;-69
2021/08/21 01:07:07;;;;;;;0.65;0.20;;;14.20;99.90;;;;;;5073535;28;20037;-69
2021/08/21 01:09:36;;;;;;;0.20;0.20;;;14.20;99.90;;;;;;5073318;28;20089;-68
2021/08/21 01:12:02;;;;;;;0.20;0.20;;;14.20;99.90;;;;;;5072037;28;20488;-68
2021/08/21 01:14:28;;;;;;;0.85;0.30;;;14.10;99.90;;;;;;5073672;28;20060;-68
2021/08/21 01:46:19;;;;;;;0.50;0.30;;;13.90;99.90;;;;;;5072723;28;20518;-68
2021/08/21 01:48:45;;;;;;;0.45;0.30;;;13.90;99.90;;;;;;5073036;28;20029;-68
2021/08/21 01:51:10;;;;;;;0.60;0.30;;;13.90;99.90;;;;;;5072642;28;20031;-68
2021/08/21 01:53:36;;;;;;;1.35;0.40;;;13.90;99.90;;;;;;5072459;28;20067;-68
2021/08/21 01:56:02;;;;;;;0.68;0.30;;;13.90;99.90;;;;;;5072642;28;20031;-68
2021/08/21 01:58:28;;;;;;;0.28;0.28;;;13.90;99.90;;;;;;5071303;28;20024;-68
2021/08/21 02:00:54;;;;;;;0.35;0.30;;;13.90;99.90;;;;;;5072423;28;20032;-68
2021/08/21 02:03:19;;;;;;;0.20;0.20;;;13.90;99.90;;;;;;5072417;28;20472;-71
2021/08/21 02:05:45;;;;;;;0.30;0.20;;;13.90;99.90;;;;;;5072330;28;20026;-71
2021/08/21 02:08:11;;;;;;;0.30;0.30;;;13.90;99.90;;;;;;5072584;28;20463;-71
2021/08/21 02:10:36;;;;;;;0.38;0.30;;;13.80;99.90;;;;;;5072062;28;20528;-71
2021/08/21 02:13:02;;;;;;;0.52;0.30;;;13.80;99.90;;;;;;5072319;28;20035;-69
2021/08/21 02:15:28;;;;;;;2.28;0.38;;;13.90;99.90;;;;;;5072076;28;20028;-69
2021/08/21 02:17:54;;;;;;;0.40;0.30;;;13.90;99.90;;;;;;5072145;28;20416;-69
2021/08/21 02:20:20;;;;;;;0.30;0.30;;;13.80;99.90;;;;;;5071923;28;20036;-69
2021/08/21 02:22:46;;;;;;;0.77;0.30;;;13.80;99.90;;;;;;5072424;28;20020;-69
2021/08/21 02:25:14;;;;;;;0.20;0.20;;;13.80;99.90;;;;;;5072232;28;20025;-69
2021/08/21 02:27:43;;;;;;;0.70;0.30;;;13.80;99.90;;;;;;5072243;28;20021;-69
2021/08/21 02:30:10;;;;;;;0.20;0.20;;;13.80;99.90;;;;;;5072248;28;20411;-69
2021/08/21 02:32:37;;;;;;;0.35;0.20;;;13.80;99.90;;;;;;5072058;28;20055;-69
2021/08/21 02:35:03;;;;;;;1.30;0.30;;;13.80;99.90;;;;;;5071909;28;20549;-69
2021/08/21 02:37:29;;;;;;;0.57;0.30;;;13.80;99.90;;;;;;5071881;28;20090;-69
2021/08/21 02:39:55;;;;;;;1.65;0.20;;;13.80;99.90;;;;;;5071888;28;20032;-68
2021/08/21 02:42:21;;;;;;;2.40;0.30;;;13.80;99.90;;;;;;5071784;28;20028;-68
2021/08/21 02:44:47;;;;;;;2.92;0.20;;;13.70;99.90;;;;;;5072169;28;20029;-68
2021/08/21 02:47:13;;;;;;;1.58;0.30;;;13.70;99.90;;;;;;5071860;28;20476;-68
2021/08/21 02:49:39;;;;;;;1.23;0.82;;;13.70;99.90;;;;;;5071940;28;20098;-68
2021/08/21 02:52:05;;;;;;;2.03;0.30;;;13.70;99.90;;;;;;5071713;28;20024;-68
2021/08/21 02:54:31;;;;;;;0.68;0.30;;;13.70;99.90;;;;;;5071904;28;20032;-68
2021/08/21 02:56:57;;;;;;;0.73;0.20;;;13.60;99.90;;;;;;5071818;28;20024;-68
2021/08/21 02:59:23;;;;;;;0.40;0.20;;;13.60;99.90;;;;;;5071595;28;20028;-69
2021/08/21 03:01:49;;;;;;;1.70;0.20;;;13.60;99.90;;;;;;5070412;28;20047;-68
2021/08/21 03:04:14;;;;;;;0.20;0.20;;;13.50;99.90;;;;;;5072034;28;20028;-68
2021/08/21 03:06:40;;;;;;;0.82;0.30;;;13.50;99.90;;;;;;5071790;28;20489;-69
2021/08/21 03:09:06;;;;;;;0.20;0.20;;;13.50;99.90;;;;;;5072002;28;20371;-69
2021/08/21 03:11:32;;;;;;;0.22;0.22;;;13.50;99.90;;;;;;5071515;28;20499;-68
2021/08/21 03:13:58;;;;;;;0.40;0.20;;;13.50;99.90;;;;;;5071689;28;20020;-68
2021/08/21 03:16:24;;;;;;;0.20;0.20;;;13.50;99.90;;;;;;5071886;28;20031;-68
2021/08/21 03:18:50;;;;;;;0.10;0.10;;;13.50;99.90;;;;;;5071771;28;20395;-68
2021/08/21 03:21:16;;;;;;;0.10;0.10;;;13.50;99.90;;;;;;5071582;28;20036;-68
2021/08/21 03:23:42;;;;;;;0.13;0.13;;;13.40;99.90;;;;;;5071587;28;20094;-68
2021/08/21 03:26:09;;;;;;;1.27;0.20;;;13.40;99.90;;;;;;5071548;28;20048;-68
2021/08/21 03:28:35;;;;;;;3.85;0.30;;;13.40;99.90;;;;;;5071413;28;20025;-68
2021/08/21 03:31:01;;;;;;;0.35;0.20;;;13.30;99.90;;;;;;5071789;28;20112;-68
2021/08/21 03:33:26;;;;;;;0.13;0.13;;;13.30;99.90;;;;;;5071622;28;20024;-68
2021/08/21 03:35:52;;;;;;;0.85;0.40;;;13.30;99.90;;;;;;5071768;28;20182;-68
2021/08/21 03:38:18;;;;;;;2.67;0.30;;;13.30;99.90;;;;;;5071634;28;20028;-68
2021/08/21 03:40:44;;;;;;;0.32;0.30;;;13.30;99.90;;;;;;5071182;28;20077;-68
2021/08/21 03:43:10;;;;;;;0.10;0.10;;;13.30;99.90;;;;;;5071476;28;20095;-68
2021/08/21 03:45:36;;;;;;;1.90;0.10;;;13.30;99.90;;;;;;5073107;28;20028;-69
2021/08/21 03:48:03;;;;;;;0.20;0.20;;;13.30;99.90;;;;;;5075073;28;20487;-69
2021/08/21 03:50:29;;;;;;;0.55;0.20;;;13.30;99.90;;;;;;5074725;28;20024;-70
2021/08/21 03:52:55;;;;;;;1.65;0.40;;;13.30;99.90;;;;;;5074773;28;20047;-69
2021/08/21 03:55:20;;;;;;;0.20;0.20;;;13.30;99.90;;;;;;5074775;28;20016;-69
2021/08/21 03:57:46;;;;;;;0.40;0.17;;;13.30;99.90;;;;;;5074864;28;20039;-69
2021/08/21 04:00:14;;;;;;;1.65;0.20;;;13.20;99.90;;;;;;5074624;28;20109;-70
2021/08/21 04:02:39;;;;;;;1.85;0.20;;;13.30;99.90;;;;;;5074555;28;20024;-70
2021/08/21 04:05:05;;;;;;;0.10;0.10;;;13.30;99.90;;;;;;5074725;28;20024;-70
2021/08/21 04:07:31;;;;;;;0.20;0.20;;;13.20;99.90;;;;;;5074513;28;20541;-70
2021/08/21 04:09:57;;;;;;;1.00;0.30;;;13.20;99.90;;;;;;5074799;28;20071;-70
2021/08/21 04:12:22;;;;;;;0.30;0.22;;;13.20;99.90;;;;;;5074544;28;20029;-71
2021/08/21 04:14:48;;;;;;;1.80;0.13;;;13.20;99.90;;;;;;5074462;28;20064;-70
2021/08/21 04:17:14;;;;;;;0.20;0.20;;;13.20;99.90;;;;;;5074537;28;20028;-69
2021/08/21 04:19:39;;;;;;;0.20;0.20;;;13.20;99.90;;;;;;5074146;28;20017;-68
2021/08/21 04:22:05;;;;;;;1.10;0.20;;;13.20;99.90;;;;;;5074275;28;20095;-68
2021/08/21 04:24:31;;;;;;;0.30;0.20;;;13.20;99.90;;;;;;5074466;28;20099;-69
2021/08/21 04:26:56;;;;;;;2.08;0.20;;;13.20;99.90;;;;;;5074191;28;20040;-69
2021/08/21 04:29:22;;;;;;;1.25;0.20;;;13.20;99.90;;;;;;5074601;28;20081;-70
2021/08/21 04:31:48;;;;;;;0.20;0.20;;;13.10;99.90;;;;;;5074452;28;20021;-72
2021/08/21 04:34:14;;;;;;;0.10;0.10;;;13.10;99.90;;;;;;5074164;28;20464;-70
2021/08/21 04:36:40;;;;;;;1.20;0.20;;;13.10;99.90;;;;;;5073932;28;20025;-70
2021/08/21 04:39:06;;;;;;;0.38;0.13;;;13.20;99.90;;;;;;5074091;28;20104;-70
2021/08/21 04:41:31;;;;;;;0.88;0.20;;;13.30;99.90;;;;;;5074124;28;20149;-68
2021/08/21 04:43:57;;;;;;;1.50;0.20;;;13.30;99.90;;;;;;5074453;28;20575;-68
2021/08/21 04:46:23;;;;;;;0.80;0.20;;;13.20;99.90;;;;;;5054244;28;20392;-69
2021/08/21 04:48:48;;;;;;;5.85;0.65;;;13.20;99.90;;;;;;5052518;28;20040;-68
2021/08/21 04:51:14;;;;;;;0.28;0.13;;;13.20;99.90;;;;;;5053812;28;20104;-71
2021/08/21 04:53:40;;;;;;;1.88;0.22;;;13.20;99.90;;;;;;5053529;28;20066;-69
2021/08/21 04:56:06;;;;;;;0.30;0.30;;;13.20;99.90;;;;;;5052554;28;20104;-69
2021/08/21 04:58:32;;;;;;;3.17;0.20;;;13.20;99.90;;;;;;5053832;28;20029;-69
2021/08/21 05:00:58;;;;;;;2.22;0.20;;;13.20;99.90;;;;;;5053826;28;20041;-71
2021/08/21 05:03:23;;;;;;;0.70;0.20;;;13.20;99.90;;;;;;5053896;28;20028;-71
2021/08/21 05:05:50;;;;;;;4.35;0.30;;;13.30;99.90;;;;;;5053701;28;20025;-70
2021/08/21 05:08:16;;;;;;;0.40;0.10;;;13.30;99.90;;;;;;5053775;28;20052;-70
2021/08/21 05:10:42;;;;;;;0.88;0.30;;;13.30;99.90;;;;;;5053249;28;20539;-71
2021/08/21 05:13:08;;;;;;;1.33;0.30;;;13.40;99.90;;;;;;5053478;28;20496;-70
2021/08/21 05:15:34;;;;;;;0.45;0.20;;;13.40;99.90;;;;;;5053571;28;20021;-69
2021/08/21 05:18:02;;;;;;;0.20;0.20;;;13.40;99.90;;;;;;5053367;28;20533;-70
2021/08/21 05:21:13;;;;;;;0.82;0.15;;;13.40;99.90;;;;;;5053049;28;20029;-69
2021/08/21 05:23:14;;;;;;;0.68;0.20;;;13.30;99.90;;;;;;5052545;28;20488;-69
2021/08/21 05:25:41;;;;;;;0.20;0.20;;;13.20;99.90;;;;;;5053040;28;20028;-69
2021/08/21 05:28:09;;;;;;;0.10;0.10;;;13.20;99.90;;;;;;5053387;28;20052;-69
2021/08/21 05:30:38;;;;;;;0.20;0.20;;;13.20;99.90;;;;;;5053083;28;20021;-69
2021/08/21 05:33:08;;;;;;;0.60;0.20;;;13.10;99.90;;;;;;5051748;28;20395;-69
2021/08/21 05:35:34;;;;;;;1.98;0.20;;;13.10;99.90;;;;;;5053089;28;20021;-69
2021/08/21 05:37:59;;;;;;;0.10;0.10;;;13.20;99.90;;;;;;5053167;28;20538;-69
2021/08/21 05:40:25;;;;;;;0.10;0.10;;;13.20;99.90;;;;;;5052977;28;20056;-69
2021/08/21 05:42:51;;;;;;;0.10;0.10;;;13.20;99.90;;;;;;5052670;28;20056;-69
2021/08/21 05:45:16;;;;;;;0.52;0.10;;;13.20;99.90;;;;;;5052729;28;20051;-68
2021/08/21 05:47:42;;;;;;;0.10;0.10;;;13.20;99.90;;;;;;5052949;28;20503;-69
2021/08/21 05:50:08;;;;;;;0.68;0.25;;;13.20;99.90;;;;;;5052566;28;20538;-69
2021/08/21 05:52:34;;;;;;;1.85;0.20;;;13.10;99.90;;;;;;5052298;28;20052;-69
2021/08/21 05:55:00;;;;;;;0.57;0.55;;;13.10;99.90;;;;;;5052832;28;20029;-69
2021/08/21 05:57:25;;;;;;;1.30;1.20;;;13.10;99.90;;;;;;5052798;28;20028;-70
2021/08/21 05:59:51;;;;;;;0.40;0.40;;;13.10;99.90;;;;;;5052382;28;20048;-67
2021/08/21 06:02:17;;;;;;;0.38;0.20;;;13.10;99.90;;;;;;5052652;28;20048;-68
2021/08/21 06:04:42;;;;;;;0.57;0.20;;;13.10;99.90;;;;;;5052353;28;20098;-68
2021/08/21 06:07:08;;;;;;;0.22;0.20;;;13.00;99.90;;;;;;5052371;28;20025;-68
2021/08/21 06:09:34;;;;;;;0.45;0.20;;;13.00;99.90;;;;;;5052318;28;20028;-67
2021/08/21 06:11:59;;;;;;;0.20;0.20;;;13.00;99.90;;;;;;5052751;28;20100;-68
2021/08/21 06:14:25;;;;;;;0.20;0.20;;;13.00;99.90;;;;;;5052691;28;20484;-69
2021/08/21 06:16:51;;;;;;;0.82;0.40;;;12.90;99.90;;;;;;5052284;28;20017;-70
2021/08/21 06:19:16;;;;;;;4.05;0.65;;;12.90;99.90;;;;;;5052514;28;20025;-69
2021/08/21 06:21:44;;;;;;;0.30;0.30;;;13.60;99.90;;;;;;5052000;28;20540;-69
2021/08/21 06:24:10;;;;;;;0.10;0.10;;;13.90;99.90;;;;;;5052117;28;20036;-69
2021/08/21 06:26:36;;;;;;;0.90;0.20;;;13.60;99.90;;;;;;5051990;28;20036;-69
2021/08/21 06:29:02;;;;;;;0.10;0.10;;;13.30;99.90;;;;;;5052041;28;20029;-69
2021/08/21 06:31:28;;;;;;;0.32;0.22;;;13.20;99.90;;;;;;5051932;28;20036;-69
2021/08/21 06:33:54;;;;;;;3.03;0.30;;;13.10;99.90;;;;;;5051890;28;20021;-69
2021/08/21 06:36:19;;;;;;;0.10;0.10;;;13.10;99.90;;;;;;5051895;28;20063;-69
2021/08/21 06:38:45;;;;;;;0.32;0.20;;;13.00;99.90;;;;;;5051886;28;20021;-69
2021/08/21 06:41:11;;;;;;;0.32;0.32;;;13.00;99.90;;;;;;5051757;28;20048;-69
2021/08/21 06:43:36;;;;;;;0.60;0.50;;;12.90;99.90;;;;;;5051833;28;20017;-69
2021/08/21 06:46:02;;;;;;;0.45;0.35;;;12.90;99.90;;;;;;5051744;28;20033;-69
2021/08/21 06:48:29;;;;;;;0.55;0.17;;;12.90;99.90;;;;;;5051950;28;20032;-69
2021/08/21 06:50:55;;;;;;;0.20;0.20;;;12.90;99.90;;;;;;5054499;28;20076;-73
2021/08/21 06:53:21;;;;;;;0.30;0.10;;;12.80;99.90;;;;;;5051679;28;20057;-69
2021/08/21 06:55:47;;;;;;;0.20;0.20;;;13.40;99.90;;;;;;5051640;28;20032;-69
2021/08/21 06:58:13;;;;;;;0.20;0.20;;;13.40;99.90;;;;;;5051864;28;20496;-69
2021/08/21 07:00:39;;;;;;;0.20;0.20;;;13.30;99.90;;;;;;5051745;28;20077;-69
2021/08/21 07:03:06;;;;;;;2.35;0.20;;;13.10;99.90;;;;;;5051624;28;20021;-70
2021/08/21 07:05:31;;;;;;;1.95;0.20;;;13.10;99.90;;;;;;5051500;28;20027;-69
2021/08/21 07:07:57;;;;;;;0.10;0.10;;;13.00;99.90;;;;;;5051690;28;20029;-70
2021/08/21 07:10:23;;;;;;;0.50;0.50;;;13.00;99.90;;;;;;5051878;28;20021;-69
2021/08/21 07:12:48;;;;;;;0.10;0.10;;;13.00;99.90;;;;;;5051822;28;20473;-67
2021/08/21 07:15:33;;;;;;;0.25;0.20;;;13.00;99.90;;;;;;5051702;28;20029;-68
2021/08/21 07:17:58;;;;;;;0.20;0.20;;;12.90;99.90;;;;;;5054157;28;20055;-68
2021/08/21 07:20:24;;;;;;;0.00;0.00;;;12.90;99.90;;;;;;5063128;28;20068;-68
2021/08/21 07:22:50;;;;;;;0.10;0.10;;;12.90;99.90;;;;;;5069814;28;20200;-68
2021/08/21 07:25:16;;;;;;;0.20;0.20;;;12.90;99.90;;;;;;5075643;28;20468;-69
2021/08/21 07:27:42;;;;;;;0.30;0.30;;;12.90;99.90;;;;;;5075278;28;20036;-69
2021/08/21 07:30:09;;;;;;;0.32;0.30;;;12.90;99.90;;;;;;5075355;28;20056;-68
2021/08/21 07:32:35;;;;;;;0.65;0.20;;;12.80;99.90;;;;;;5075068;28;20024;-69
2021/08/21 07:35:05;;;;;;;0.82;0.50;;;12.90;99.90;;;;;;5075337;28;20051;-70
2021/08/21 07:37:31;;;;;;;0.22;0.22;;;13.20;99.90;;;;;;5075233;28;20511;-68
2021/08/21 07:39:57;;;;;;;2.08;0.38;;;14.20;99.90;;;;;;5075078;28;20111;-68
2021/08/21 07:42:23;;;;;;;0.47;0.20;;;14.00;99.90;;;;;;5075153;28;20108;-69
2021/08/21 07:44:49;;;;;;;0.20;0.20;;;13.60;99.90;;;;;;5074484;28;20499;-68
2021/08/21 07:47:15;;;;;;;1.55;0.10;;;13.30;99.90;;;;;;5070533;28;20025;-68
2021/08/21 07:49:41;;;;;;;0.30;0.20;;;13.20;99.90;;;;;;5064201;28;20028;-68
2021/08/21 07:52:07;;;;;;;1.27;0.20;;;13.10;99.90;;;;;;5060194;28;20481;-68
2021/08/21 07:54:32;;;;;;;1.73;0.15;;;13.00;99.90;;;;;;5054914;28;20029;-68
2021/08/21 07:56:58;;;;;;;0.10;0.10;;;13.00;99.90;;;;;;5057243;28;20028;-69
2021/08/21 07:59:24;;;;;;;1.63;0.10;;;13.00;99.90;;;;;;5060207;28;20070;-69
2021/08/21 08:01:50;;;;;;;0.25;0.15;;;12.90;99.90;;;;;;5060495;28;20495;-72
2021/08/21 08:04:15;;;;;;;0.20;0.20;;;12.90;99.90;;;;;;5057341;28;20144;-70
2021/08/21 08:06:41;;;;;;;0.10;0.10;;;13.10;99.90;;;;;;5054411;28;20103;-70
2021/08/21 08:09:07;;;;;;;0.55;0.20;;;13.10;99.90;;;;;;5053373;28;20017;-70
2021/08/21 08:11:32;;;;;;;0.20;0.20;;;13.30;99.90;;;;;;5054556;28;20021;-70
2021/08/21 08:13:58;;;;;;;0.98;0.20;;;13.30;99.90;;;;;;5053171;28;20075;-70
2021/08/21 08:16:24;;;;;;;0.10;0.10;;;13.30;99.90;;;;;;5054455;28;20086;-70
2021/08/21 08:18:50;;;;;;;0.10;0.10;;;13.30;99.90;;;;;;5056735;28;20020;-70
2021/08/21 08:21:18;;;;;;;0.70;0.20;;;13.30;99.90;;;;;;5059421;28;20465;-69
2021/08/21 08:23:45;;;;;;;0.20;0.20;;;13.50;99.90;;;;;;5072210;28;20024;-70
2021/08/21 08:26:11;;;;;;;0.10;0.10;;;13.60;99.90;;;;;;5074300;28;20114;-69
2021/08/21 08:28:36;;;;;;;0.15;0.10;;;13.80;99.90;;;;;;5069304;28;20016;-70
2021/08/21 08:31:02;;;;;;;1.73;0.10;;;13.80;99.90;;;;;;5054700;28;20058;-68
2021/08/21 08:33:28;;;;;;;0.80;0.10;;;13.80;99.90;;;;;;5074211;28;20029;-68
2021/08/21 08:35:55;;;;;;;0.20;0.20;;;13.70;99.90;;;;;;5073972;28;20016;-68
2021/08/21 08:38:21;;;;;;;0.10;0.10;;;13.60;99.90;;;;;;5074296;28;20036;-68
2021/08/21 08:40:47;;;;;;;1.27;0.10;;;13.50;99.90;;;;;;5073775;28;20701;-68
2021/08/21 08:43:14;;;;;;;0.40;0.20;;;13.40;99.90;;;;;;5074272;28;20036;-68
2021/08/21 08:45:42;;;;;;;2.25;0.38;;;13.30;99.90;;;;;;5060002;28;20511;-68
2021/08/21 08:48:08;;;;;;;0.15;0.15;;;13.30;99.90;;;;;;5054247;28;20033;-70
2021/08/21 08:50:34;;;;;;;0.80;0.28;;;13.20;99.90;;;;;;5072042;28;20029;-69
2021/08/21 08:52:59;;;;;;;0.57;0.28;;;13.10;99.90;;;;;;5064287;28;20041;-69
2021/08/21 08:55:25;;;;;;;0.10;0.10;;;13.10;99.90;;;;;;5061529;28;20111;-69
2021/08/21 08:57:53;;;;;;;0.10;0.10;;;13.00;99.90;;;;;;5068470;28;20465;-70
2021/08/21 09:00:20;;;;;;;2.72;0.20;;;13.00;99.90;;;;;;5061615;28;20348;-69
2021/08/21 09:02:49;;;;;;;0.20;0.20;;;12.90;99.90;;;;;;5062494;28;20498;-69
2021/08/21 09:05:17;;;;;;;0.10;0.10;;;12.90;99.90;;;;;;5064650;28;20044;-69
2021/08/21 09:07:56;;;;;;;0.28;0.20;;;12.90;99.90;;;;;;5073124;28;20024;-69
2021/08/21 09:10:22;;;;;;;0.93;0.20;;;12.90;99.90;;;;;;5061711;28;20108;-69
2021/08/21 09:13:03;;;;;;;0.75;0.20;;;12.90;99.90;;;;;;5061535;28;20502;-69
2021/08/21 09:15:30;;;;;;;1.08;0.20;;;12.90;99.90;;;;;;5062009;28;20052;-68
2021/08/21 09:18:05;;;;;;;0.20;0.20;;;12.90;99.90;;;;;;5060684;28;20063;-71
2021/08/21 09:20:34;;;;;;;0.88;0.25;;;12.90;99.90;;;;;;5061742;28;20441;-71
2021/08/21 09:23:24;;;;;;;0.93;0.20;;;12.80;99.90;;;;;;5062033;28;20028;-80
2021/08/21 09:25:55;;;;;;;0.43;0.20;;;12.80;99.90;;;;;;5057084;28;20029;-72
2021/08/21 09:28:27;;;;;;;0.28;0.20;;;12.80;99.90;;;;;;5062195;28;20072;-71
2021/08/21 09:31:01;;;;;;;0.60;0.20;;;12.70;99.90;;;;;;5061445;28;20024;-71
2021/08/21 09:33:28;;;;;;;1.92;0.17;;;12.70;99.90;;;;;;5068347;28;20375;-70
2021/08/21 09:35:54;;;;;;;0.70;0.20;;;12.60;99.90;;;;;;5072790;28;20111;-71
2021/08/21 09:38:23;;;;;;;2.25;0.10;;;12.50;99.90;;;;;;5072833;28;20138;-71
2021/08/21 09:40:56;;;;;;;0.22;0.20;;;12.50;99.90;;;;;;5072565;28;20036;-71
2021/08/21 09:43:22;;;;;;;0.13;0.13;;;12.50;99.90;;;;;;5072498;28;20043;-71
2021/08/21 09:46:05;;;;;;;1.33;0.20;;;12.50;99.90;;;;;;5072462;28;20473;-71
2021/08/21 09:48:31;;;;;;;0.22;0.22;;;12.50;99.90;;;;;;5072699;28;20025;-71
2021/08/21 09:50:57;;;;;;;2.72;0.22;;;12.50;99.90;;;;;;5072411;28;20035;-71
2021/08/21 09:53:35;;;;;;;0.20;0.20;;;12.50;99.90;;;;;;5072479;28;20037;-71
2021/08/21 09:56:11;;;;;;;2.78;0.30;;;12.50;99.90;;;;;;5072445;28;20059;-71
2021/08/21 09:58:36;;;;;;;0.30;0.20;;;12.50;99.90;;;;;;5064228;28;20659;-71
2021/08/21 10:01:05;;;;;;;0.20;0.20;;;12.50;99.90;;;;;;5060472;28;20081;-71
2021/08/21 10:03:31;;;;;;;3.30;0.30;;;12.50;99.90;;;;;;5062947;28;20051;-71
2021/08/21 10:05:57;;;;;;;0.20;0.20;;;12.50;99.90;;;;;;5069341;28;20119;-70
2021/08/21 10:08:27;;;;;;;8.48;0.85;;;12.60;99.90;;;;;;5066656;28;20095;-72
2021/08/21 10:10:54;;;;;;;1.30;0.30;;;13.50;99.90;;;;;;5072036;28;20055;-69
2021/08/21 10:13:30;;;;;;;0.70;0.22;;;13.50;99.90;;;;;;5072540;28;20127;-70
2021/08/21 10:15:57;;;;;;;0.28;0.28;;;13.20;99.90;;;;;;5062223;28;20028;-68
2021/08/21 10:18:24;;;;;;;0.30;0.20;;;12.90;99.90;;;;;;5072470;28;20099;-68
2021/08/21 10:20:50;;;;;;;4.55;0.30;;;12.80;99.90;;;;;;5071792;28;20037;-68
2021/08/21 10:23:26;;;;;;;0.32;0.20;;;12.70;99.90;;;;;;5072124;28;20029;-68
2021/08/21 10:26:05;;;;;;;0.20;0.20;;;12.70;99.90;;;;;;5071959;28;20032;-68
2021/08/21 10:28:35;;;;;;;1.48;0.28;;;12.60;99.90;;;;;;5072140;28;20067;-68
2021/08/21 10:31:01;;;;;;;0.82;0.20;;;12.60;99.90;;;;;;5071923;28;20020;-68
2021/08/21 10:33:29;;;;;;;0.85;0.20;;;12.60;99.90;;;;;;5072204;28;20028;-68
2021/08/21 10:35:56;;;;;;;0.20;0.20;;;12.60;99.90;;;;;;5071990;28;20434;-68
2021/08/21 10:38:32;;;;;;;3.03;0.35;;;12.50;99.90;;;;;;5065729;28;20079;-68
2021/08/21 10:41:10;;;;;;;0.32;0.28;;;12.50;99.90;;;;;;5060190;28;20064;-68
2021/08/21 10:43:44;;;;;;;0.52;0.17;;;12.50;99.90;;;;;;5060529;28;20353;-68
2021/08/21 10:46:11;;;;;;;4.53;0.50;;;12.50;99.90;;;;;;5051616;28;20021;-81
2021/08/21 10:48:37;;;;;;;1.10;0.60;;;13.00;99.90;;;;;;5057978;28;20028;-71
2021/08/21 10:51:04;;;;;;;3.67;0.65;;;13.10;99.90;;;;;;5066055;28;20365;-71
2021/08/21 10:53:32;;;;;;;1.20;0.20;;;13.20;99.90;;;;;;5073036;28;20052;-70
2021/08/21 10:56:00;;;;;;;1.48;0.30;;;13.60;99.90;;;;;;5076064;28;20032;-70
2021/08/21 10:58:28;;;;;;;1.45;0.20;;;13.60;99.90;;;;;;5075808;28;20028;-68
2021/08/21 11:01:06;;;;;;;0.10;0.10;;;13.40;99.90;;;;;;5075577;28;20083;-68
2021/08/21 11:03:32;;;;;;;0.35;0.20;;;13.30;99.90;;;;;;5068685;28;20032;-68
2021/08/21 11:06:10;;;;;;;0.85;0.20;;;13.20;99.90;;;;;;5065586;28;20029;-68
2021/08/21 11:08:38;;;;;;;0.20;0.20;;;13.20;99.90;;;;;;5073682;28;20105;-68
2021/08/21 11:11:10;;;;;;;1.48;0.20;;;13.20;99.90;;;;;;5075565;28;20032;-68
2021/08/21 11:16:24;;;;;;;0.40;0.30;;;13.20;99.90;;;;;;5075523;28;20029;-68
2021/08/21 11:18:51;;;;;;;1.17;0.40;;;13.20;99.90;;;;;;5075608;28;20147;-68
2021/08/21 11:21:29;;;;;;;0.10;0.10;;;13.20;99.90;;;;;;5075615;28;20089;-68
2021/08/21 11:23:55;;;;;;;0.20;0.20;;;13.20;99.90;;;;;;5075329;28;20111;-68
2021/08/21 11:26:22;;;;;;;0.10;0.10;;;13.30;99.90;;;;;;5074021;28;20203;-68
2021/08/21 11:29:08;;;;;;;0.50;0.20;;;13.20;99.90;;;;;;5075231;28;20487;-68
2021/08/21 11:31:53;;;;;;;0.45;0.20;;;13.30;99.90;;;;;;5075332;28;20020;-67
2021/08/21 11:34:19;;;;;;;0.40;0.20;;;13.30;99.90;;;;;;5075222;28;20032;-68
2021/08/21 11:36:46;;;;;;;0.10;0.10;;;13.30;99.90;;;;;;5074897;28;20032;-68
2021/08/21 11:39:12;;;;;;;0.20;0.20;;;13.30;99.90;;;;;;5075487;28;20028;-69
2021/08/21 11:41:38;;;;;;;0.43;0.40;;;13.20;99.90;;;;;;5074829;28;20036;-69
2021/08/21 11:44:07;;;;;;;4.40;0.45;;;13.20;99.90;;;;;;5074872;28;20025;-69
2021/08/21 11:46:33;;;;;;;0.20;0.20;;;13.20;99.90;;;;;;5074969;28;20024;-69
2021/08/21 11:49:06;;;;;;;1.00;0.20;;;13.20;99.90;;;;;;5074814;28;20033;-69
2021/08/21 11:51:37;;;;;;;7.65;0.55;;;13.20;99.90;;;;;;5074952;28;20025;-69
2021/08/21 11:54:07;;;;;;;1.27;0.65;;;13.10;99.90;;;;;;5074805;28;20102;-69
2021/08/21 11:56:33;;;;;;;4.57;0.25;;;13.20;99.90;;;;;;5074883;28;20372;-69
2021/08/21 11:59:09;;;;;;;0.90;0.20;;;13.20;99.90;;;;;;5074640;28;20029;-68
2021/08/21 12:01:37;;;;;;;0.20;0.20;;;13.20;99.90;;;;;;5074951;28;20083;-68
2021/08/21 12:06:34;;;;;;;0.40;0.20;;;13.20;99.90;;;;;;5074162;28;20029;-68
2021/08/21 12:09:10;;;;;;;0.57;0.20;;;13.20;99.90;;;;;;5074254;28;20495;-68
2021/08/21 12:11:41;;;;;;;0.10;0.10;;;13.20;99.90;;;;;;5074731;28;20032;-68
2021/08/21 12:14:08;;;;;;;0.93;0.20;;;13.20;99.90;;;;;;5074628;28;20028;-68
2021/08/21 12:16:35;;;;;;;1.00;0.30;;;13.20;99.90;;;;;;5073075;28;20039;-69
2021/08/21 12:19:01;;;;;;;0.80;0.20;;;13.20;99.90;;;;;;5074611;28;20112;-69
2021/08/21 12:21:27;;;;;;;0.20;0.20;;;13.20;99.90;;;;;;5074348;28;20029;-69
2021/08/21 12:23:54;;;;;;;0.32;0.20;;;13.20;99.90;;;;;;5074564;28;20020;-69
2021/08/21 12:26:56;;;;;;;0.20;0.20;;;13.20;99.90;;;;;;5074242;28;20028;-69
2021/08/21 12:29:23;;;;;;;0.20;0.20;;;13.20;99.90;;;;;;5071748;28;20028;-69
2021/08/21 12:31:50;;;;;;;0.30;0.20;;;13.20;99.90;;;;;;5073620;28;20433;-70
2021/08/21 12:34:28;;;;;;;0.10;0.10;;;13.10;99.90;;;;;;5074206;28;20025;-69
2021/08/21 12:36:57;;;;;;;0.40;0.20;;;13.10;99.90;;;;;;5074009;28;20029;-69
2021/08/21 12:39:28;;;;;;;0.10;0.10;;;13.10;99.90;;;;;;5072749;28;20444;-69
2021/08/21 12:42:00;;;;;;;0.40;0.13;;;13.20;99.90;;;;;;5073814;28;20036;-70
2021/08/21 12:44:38;;;;;;;1.10;0.30;;;13.20;99.90;;;;;;5074352;28;20024;-70
2021/08/21 12:47:12;;;;;;;0.98;0.20;;;13.20;99.90;;;;;;5073764;28;20560;-69
2021/08/21 12:49:42;;;;;;;2.33;0.25;;;13.20;99.90;;;;;;5074004;28;20508;-70
2021/08/21 12:52:26;;;;;;;0.57;0.30;;;13.20;99.90;;;;;;5073499;28;20111;-69
2021/08/21 12:55:00;;;;;;;0.30;0.30;;;13.30;99.90;;;;;;5073910;28;20036;-69
2021/08/21 12:57:34;;;;;;;0.20;0.20;;;13.30;99.90;;;;;;5068666;28;20024;-69
2021/08/21 13:00:04;;;;;;;0.10;0.10;;;13.30;99.90;;;;;;5073490;28;20028;-69
2021/08/21 13:02:46;;;;;;;1.83;0.57;;;13.30;99.90;;;;;;5073569;28;20036;-70
2021/08/21 13:05:14;;;;;;;0.50;0.30;;;13.40;99.90;;;;;;5073523;28;20027;-69
2021/08/21 13:07:44;;;;;;;3.17;0.30;;;13.40;99.90;;;;;;5073547;28;20032;-70
2021/08/21 13:10:12;;;;;;;2.60;0.20;;;13.40;99.90;;;;;;5073491;28;20025;-69
2021/08/21 13:12:39;;;;;;;0.28;0.22;;;13.40;99.90;;;;;;5073653;28;20154;-69
2021/08/21 13:15:10;;;;;;;0.20;0.20;;;13.40;99.90;;;;;;5073308;28;20034;-70
2021/08/21 13:17:36;;;;;;;0.85;0.40;;;13.40;99.90;;;;;;5072353;28;20476;-69
2021/08/21 13:20:04;;;;;;;0.60;0.40;;;13.50;99.90;;;;;;5073234;28;20025;-69
2021/08/21 13:22:30;;;;;;;0.40;0.40;;;13.50;99.90;;;;;;5073538;28;20044;-70
2021/08/21 13:24:56;;;;;;;1.13;0.32;;;13.50;99.90;;;;;;5073025;28;20081;-69